Time;durP1;ratioP1;P1;durP2;ratioP2;P2;SDS_P1;SDS_P2;PMS_P1;PMS_P2;Temp;Humidity;BMP_temperature;BMP_pressure;BME280_temperature;BME280_humidity;BME280_pressure;Samples;Min_cycle;Max_cycle;Signal;HPM_P1;HPM_P2
2023/03/16 00:00:50;;;;;;;23.45;13.70;;;28.00;77.50;;;;;;5024112;28;20084;-49
2023/03/16 00:03:29;;;;;;;17.45;13.35;;;28.10;77.40;;;;;;5024545;28;20044;-51
2023/03/16 00:05:56;;;;;;;17.40;12.55;;;28.10;77.20;;;;;;5024299;28;20037;-46
2023/03/16 00:08:23;;;;;;;18.88;12.98;;;28.10;77.10;;;;;;5024140;28;20026;-49
2023/03/16 00:10:52;;;;;;;18.00;12.52;;;28.10;77.00;;;;;;5024354;28;20102;-52
2023/03/16 00:13:24;;;;;;;15.68;12.13;;;28.10;77.00;;;;;;5024123;28;20026;-52
2023/03/16 00:15:57;;;;;;;18.65;11.82;;;28.10;76.70;;;;;;5024739;28;20092;-52
2023/03/16 00:18:26;;;;;;;18.52;11.77;;;28.10;76.50;;;;;;5023889;28;20215;-48
2023/03/16 00:20:57;;;;;;;18.38;12.27;;;28.10;76.40;;;;;;5024318;28;20029;-46
2023/03/16 00:23:27;;;;;;;20.33;12.10;;;28.10;76.50;;;;;;5024211;28;20042;-45
2023/03/16 00:25:55;;;;;;;21.13;12.38;;;28.00;76.50;;;;;;5024394;28;20049;-54
2023/03/16 00:28:23;;;;;;;18.73;12.15;;;28.00;76.50;;;;;;5024257;28;20038;-46
2023/03/16 00:30:50;;;;;;;18.23;12.27;;;28.00;76.50;;;;;;5024334;28;20282;-49
2023/03/16 00:33:17;;;;;;;19.40;13.05;;;28.00;76.40;;;;;;5023740;28;20026;-47
2023/03/16 00:36:00;;;;;;;19.02;11.90;;;28.00;76.50;;;;;;5023998;28;20018;-47
2023/03/16 00:38:29;;;;;;;19.83;12.32;;;28.00;76.50;;;;;;5024609;28;20080;-47
2023/03/16 00:40:55;;;;;;;19.15;12.68;;;28.00;76.30;;;;;;5023869;28;20049;-52
2023/03/16 00:43:22;;;;;;;18.48;12.20;;;27.90;76.20;;;;;;5023679;28;20093;-48
2023/03/16 00:45:48;;;;;;;17.30;12.18;;;27.90;76.30;;;;;;5024454;28;20030;-52
2023/03/16 00:48:17;;;;;;;19.35;12.38;;;27.90;76.10;;;;;;5024191;28;20045;-46
2023/03/16 00:50:43;;;;;;;21.42;12.88;;;27.90;76.10;;;;;;5024007;28;20084;-50
2023/03/16 00:53:10;;;;;;;16.60;12.68;;;27.90;76.10;;;;;;5024082;28;20343;-48
2023/03/16 00:55:37;;;;;;;20.27;12.07;;;27.80;75.90;;;;;;5023628;28;20269;-48
2023/03/16 00:58:04;;;;;;;20.55;12.10;;;27.80;75.80;;;;;;5020308;28;20022;-41
2023/03/16 01:00:31;;;;;;;19.35;12.10;;;27.80;74.80;;;;;;5028070;28;20029;-53
2023/03/16 01:02:57;;;;;;;20.80;12.13;;;27.40;76.00;;;;;;5031375;28;20046;-46
2023/03/16 01:05:24;;;;;;;21.13;12.48;;;27.40;76.90;;;;;;5021860;28;20030;-45
2023/03/16 01:07:51;;;;;;;23.95;11.88;;;27.40;76.70;;;;;;5016085;28;20029;-43
2023/03/16 01:10:17;;;;;;;25.38;12.63;;;27.50;76.40;;;;;;5007148;28;20390;-45
2023/03/16 01:12:44;;;;;;;24.17;12.05;;;27.50;76.50;;;;;;5007566;28;20085;-44
2023/03/16 01:15:11;;;;;;;21.80;12.95;;;27.60;76.40;;;;;;5016629;28;20277;-46
2023/03/16 01:17:40;;;;;;;19.25;12.50;;;27.60;76.40;;;;;;5009527;28;20042;-50
2023/03/16 01:20:10;;;;;;;18.70;11.27;;;27.60;76.20;;;;;;5010275;28;20026;-53
2023/03/16 01:22:41;;;;;;;20.40;12.73;;;27.60;76.10;;;;;;4995841;28;20026;-47
2023/03/16 01:25:09;;;;;;;15.30;11.88;;;27.60;75.90;;;;;;5018612;28;20202;-46
2023/03/16 01:27:52;;;;;;;18.65;12.18;;;27.60;75.80;;;;;;5014879;28;20042;-49
2023/03/16 01:30:22;;;;;;;19.05;12.18;;;27.60;75.90;;;;;;5006913;28;20034;-48
2023/03/16 01:32:49;;;;;;;16.52;12.40;;;27.60;76.00;;;;;;5016280;28;20249;-48
2023/03/16 01:35:16;;;;;;;18.83;12.82;;;27.50;76.00;;;;;;5029383;28;20026;-45
2023/03/16 01:37:46;;;;;;;15.30;11.73;;;27.50;76.00;;;;;;5017317;28;20076;-48
2023/03/16 01:40:13;;;;;;;16.92;11.82;;;27.50;76.10;;;;;;5020362;28;20447;-51
2023/03/16 01:42:59;;;;;;;18.40;12.43;;;27.50;76.20;;;;;;5019750;28;20073;-50
2023/03/16 01:45:59;;;;;;;16.63;11.90;;;27.50;76.30;;;;;;5045970;28;20230;-60
2023/03/16 01:48:28;;;;;;;21.63;12.98;;;27.50;76.30;;;;;;5045886;28;20205;-50
2023/03/16 01:50:55;;;;;;;18.50;12.80;;;27.50;76.00;;;;;;5020966;28;20037;-47
2023/03/16 01:53:23;;;;;;;18.23;12.75;;;27.40;75.90;;;;;;5014898;28;20022;-50
2023/03/16 01:55:52;;;;;;;16.65;12.25;;;27.40;75.90;;;;;;5028204;28;20215;-49
2023/03/16 01:58:20;;;;;;;16.17;11.55;;;27.40;75.80;;;;;;5035414;28;20294;-46
2023/03/16 02:00:47;;;;;;;17.30;12.15;;;27.40;75.70;;;;;;5030855;28;20077;-55
2023/03/16 02:03:17;;;;;;;14.98;12.40;;;27.40;75.60;;;;;;5045709;28;20037;-50
2023/03/16 02:05:53;;;;;;;17.23;12.63;;;27.40;75.60;;;;;;5045633;28;20084;-44
2023/03/16 02:08:24;;;;;;;18.83;13.52;;;27.40;75.40;;;;;;5046332;28;20309;-49
2023/03/16 02:10:53;;;;;;;21.13;13.15;;;27.40;75.60;;;;;;5045843;28;20029;-45
2023/03/16 02:13:22;;;;;;;21.08;12.88;;;27.40;75.80;;;;;;5045434;28;20029;-48
2023/03/16 02:15:50;;;;;;;17.67;13.27;;;27.40;75.80;;;;;;5036426;28;20105;-51
2023/03/16 02:18:17;;;;;;;19.42;12.77;;;27.30;75.70;;;;;;5014202;28;20096;-46
2023/03/16 02:20:55;;;;;;;19.30;13.07;;;27.30;75.50;;;;;;5017940;28;20064;-45
2023/03/16 02:23:24;;;;;;;18.80;12.88;;;27.30;75.40;;;;;;5032155;28;20353;-47
2023/03/16 02:25:56;;;;;;;21.23;12.98;;;27.30;75.30;;;;;;5045278;28;20064;-49
2023/03/16 02:28:47;;;;;;;17.42;12.82;;;27.30;75.40;;;;;;5025157;28;20194;-50
2023/03/16 02:31:17;;;;;;;20.95;13.20;;;27.20;75.10;;;;;;5005330;28;20041;-54
2023/03/16 02:33:46;;;;;;;22.38;14.52;;;27.20;75.60;;;;;;5005220;28;20037;-50
2023/03/16 02:36:14;;;;;;;18.60;15.05;;;27.30;75.70;;;;;;5005655;28;20319;-50
2023/03/16 02:38:41;;;;;;;22.52;14.98;;;27.20;75.60;;;;;;5005862;28;20073;-55
2023/03/16 02:41:14;;;;;;;22.60;15.52;;;27.20;75.60;;;;;;5005486;28;20049;-49
2023/03/16 02:43:46;;;;;;;18.85;14.00;;;27.20;76.00;;;;;;5005547;28;20035;-51
2023/03/16 02:46:14;;;;;;;20.33;14.10;;;27.20;75.30;;;;;;5005710;28;20018;-53
2023/03/16 02:48:43;;;;;;;20.30;13.70;;;27.20;75.20;;;;;;5016533;28;20036;-56
2023/03/16 02:51:10;;;;;;;16.33;12.85;;;27.30;75.40;;;;;;5013502;28;20109;-51
2023/03/16 02:53:37;;;;;;;16.25;13.50;;;27.20;75.10;;;;;;5016403;28;20330;-54
2023/03/16 02:56:04;;;;;;;18.35;13.88;;;27.20;75.00;;;;;;5021915;28;20085;-52
2023/03/16 02:58:36;;;;;;;18.55;13.65;;;27.20;75.20;;;;;;5025499;28;20036;-47
2023/03/16 03:01:03;;;;;;;17.42;12.98;;;27.20;75.30;;;;;;5025186;28;20030;-51
2023/03/16 03:03:33;;;;;;;17.00;13.32;;;27.20;75.30;;;;;;5027374;28;20087;-53
2023/03/16 03:06:00;;;;;;;16.70;12.80;;;27.20;75.50;;;;;;5043745;28;20049;-54
2023/03/16 03:08:28;;;;;;;14.32;12.13;;;27.10;75.50;;;;;;5045104;28;20286;-54
2023/03/16 03:10:55;;;;;;;20.45;13.00;;;27.20;75.50;;;;;;5044690;28;20033;-50
2023/03/16 03:13:22;;;;;;;17.90;13.15;;;27.10;75.50;;;;;;5044620;28;20021;-51
2023/03/16 03:15:49;;;;;;;17.15;13.65;;;27.20;75.50;;;;;;5044855;28;20191;-52
2023/03/16 03:18:16;;;;;;;16.27;12.88;;;27.20;75.60;;;;;;5044878;28;20265;-53
2023/03/16 03:20:42;;;;;;;18.50;12.57;;;27.10;75.50;;;;;;5034040;28;20353;-50
2023/03/16 03:23:09;;;;;;;19.20;12.55;;;27.10;75.50;;;;;;5015754;28;20038;-53
2023/03/16 03:25:38;;;;;;;20.30;12.35;;;27.10;75.50;;;;;;5025520;28;20163;-51
2023/03/16 03:28:07;;;;;;;15.75;12.48;;;27.10;75.60;;;;;;5044656;28;20029;-50
2023/03/16 03:30:34;;;;;;;18.98;12.05;;;27.00;75.60;;;;;;5044606;28;20029;-49
2023/03/16 03:33:05;;;;;;;22.05;12.45;;;27.00;75.80;;;;;;5044518;28;20202;-50
2023/03/16 03:35:31;;;;;;;18.05;12.48;;;27.00;75.60;;;;;;5044412;28;20037;-51
2023/03/16 03:37:58;;;;;;;16.75;12.73;;;27.00;75.50;;;;;;5038831;28;20030;-51
2023/03/16 03:40:25;;;;;;;17.80;12.55;;;27.00;75.50;;;;;;5014165;28;20037;-49
2023/03/16 03:42:51;;;;;;;14.32;12.23;;;27.00;75.50;;;;;;5004601;28;20330;-49
2023/03/16 03:45:18;;;;;;;15.65;12.75;;;27.00;75.50;;;;;;5023827;28;20033;-52
2023/03/16 03:47:45;;;;;;;17.95;12.70;;;27.00;75.40;;;;;;5024708;28;20036;-50
2023/03/16 03:50:12;;;;;;;18.45;13.10;;;27.00;75.30;;;;;;5024154;28;20314;-50
2023/03/16 03:52:39;;;;;;;16.67;12.93;;;27.00;75.30;;;;;;5024729;28;20089;-53
2023/03/16 03:55:06;;;;;;;18.85;14.00;;;27.00;75.30;;;;;;5024333;28;20092;-51
2023/03/16 03:57:33;;;;;;;19.00;13.32;;;26.90;75.20;;;;;;5024163;28;20035;-49
2023/03/16 04:00:00;;;;;;;21.23;15.30;;;26.90;75.20;;;;;;5017197;28;20080;-51
2023/03/16 04:02:26;;;;;;;18.40;15.25;;;27.00;75.20;;;;;;5013587;28;20030;-53
2023/03/16 04:04:53;;;;;;;19.30;16.27;;;26.90;75.10;;;;;;5015551;28;20366;-50
2023/03/16 04:07:19;;;;;;;21.33;16.77;;;26.90;75.10;;;;;;5004424;28;20326;-53
2023/03/16 04:09:46;;;;;;;18.95;15.95;;;26.90;75.10;;;;;;5004238;28;20030;-49
2023/03/16 04:12:12;;;;;;;22.63;14.40;;;26.90;75.20;;;;;;5004383;28;20026;-51
2023/03/16 04:14:39;;;;;;;19.33;14.23;;;26.90;75.10;;;;;;5004338;28;20027;-54
2023/03/16 04:17:06;;;;;;;16.33;13.48;;;26.90;75.00;;;;;;5004411;28;20042;-50
2023/03/16 04:19:32;;;;;;;16.65;12.75;;;26.90;75.10;;;;;;5004127;28;20050;-51
2023/03/16 04:21:59;;;;;;;16.58;12.43;;;26.90;75.10;;;;;;5004467;28;20191;-52
2023/03/16 04:24:26;;;;;;;21.38;13.35;;;26.90;74.90;;;;;;5004153;28;20050;-53
2023/03/16 04:26:53;;;;;;;17.42;12.70;;;26.90;74.90;;;;;;5004057;28;20034;-51
2023/03/16 04:29:20;;;;;;;16.40;12.85;;;26.90;75.10;;;;;;5004344;28;20018;-53
2023/03/16 04:31:46;;;;;;;18.05;12.32;;;26.90;75.10;;;;;;5004172;28;20045;-51
2023/03/16 04:34:15;;;;;;;15.88;12.52;;;26.80;75.20;;;;;;5003974;28;20026;-51
2023/03/16 04:36:41;;;;;;;15.00;12.70;;;26.80;75.40;;;;;;5006531;28;20061;-52
2023/03/16 04:39:09;;;;;;;14.65;12.73;;;26.80;75.40;;;;;;5007754;28;20030;-55
2023/03/16 04:41:36;;;;;;;19.08;12.98;;;26.80;75.50;;;;;;5007532;28;20230;-53
2023/03/16 04:44:03;;;;;;;13.98;12.00;;;26.80;75.40;;;;;;5007816;28;20030;-54
2023/03/16 04:46:30;;;;;;;13.27;11.88;;;26.80;75.40;;;;;;5007698;28;20030;-53
2023/03/16 04:48:57;;;;;;;15.88;12.30;;;26.80;75.40;;;;;;5007765;28;20038;-51
2023/03/16 04:51:24;;;;;;;15.13;12.52;;;26.70;75.30;;;;;;5007537;28;20026;-52
2023/03/16 04:53:51;;;;;;;13.48;12.07;;;26.70;75.30;;;;;;5007653;28;20045;-55
2023/03/16 04:56:17;;;;;;;17.08;12.73;;;26.70;75.20;;;;;;5007615;28;20045;-51
2023/03/16 04:58:48;;;;;;;13.90;12.13;;;26.70;75.10;;;;;;5007764;28;20108;-51
2023/03/16 05:01:16;;;;;;;18.25;12.32;;;26.70;75.10;;;;;;5007318;28;20029;-51
2023/03/16 05:03:42;;;;;;;15.95;12.43;;;26.70;75.20;;;;;;5007260;28;20034;-50
2023/03/16 05:06:11;;;;;;;13.50;12.10;;;26.70;75.10;;;;;;5020464;28;20064;-52
2023/03/16 05:08:37;;;;;;;15.40;11.85;;;26.70;75.10;;;;;;5046670;28;20028;-54
2023/03/16 05:11:04;;;;;;;14.88;12.93;;;26.60;75.20;;;;;;5046571;28;20052;-53
2023/03/16 05:13:31;;;;;;;15.80;12.32;;;26.70;75.10;;;;;;5047213;28;20029;-58
2023/03/16 05:15:57;;;;;;;16.02;12.07;;;26.70;75.00;;;;;;5046791;28;20313;-52
2023/03/16 05:18:24;;;;;;;14.45;12.63;;;26.70;75.10;;;;;;5046873;28;20026;-53
2023/03/16 05:20:55;;;;;;;18.15;12.60;;;26.70;75.10;;;;;;5046790;28;20353;-54
2023/03/16 05:23:22;;;;;;;16.13;12.10;;;26.60;74.80;;;;;;5046851;28;20029;-51
2023/03/16 05:25:49;;;;;;;14.48;12.27;;;26.60;74.80;;;;;;5046401;28;20037;-49
2023/03/16 05:28:16;;;;;;;15.18;12.70;;;26.60;74.90;;;;;;5046796;28;20071;-51
2023/03/16 05:30:46;;;;;;;14.90;12.48;;;26.60;75.00;;;;;;5046593;28;20373;-52
2023/03/16 05:33:13;;;;;;;14.38;12.05;;;26.60;75.20;;;;;;5046624;28;20080;-49
2023/03/16 05:35:39;;;;;;;18.05;12.82;;;26.60;75.30;;;;;;5046490;28;20041;-49
2023/03/16 05:38:08;;;;;;;15.85;12.63;;;26.60;75.10;;;;;;5046592;28;20057;-52
2023/03/16 05:40:36;;;;;;;18.67;11.98;;;26.60;75.20;;;;;;5020213;28;20034;-52
2023/03/16 05:43:03;;;;;;;14.50;12.10;;;26.60;75.10;;;;;;5007244;28;20252;-51
2023/03/16 05:45:30;;;;;;;13.27;11.57;;;26.50;75.10;;;;;;5006864;28;20231;-51
2023/03/16 05:47:57;;;;;;;13.85;12.32;;;26.50;75.00;;;;;;5006023;28;20058;-51
2023/03/16 05:50:23;;;;;;;13.90;12.32;;;26.60;75.10;;;;;;5006558;28;20033;-50
2023/03/16 05:52:50;;;;;;;14.98;11.65;;;26.60;75.10;;;;;;5006981;28;20030;-54
2023/03/16 05:55:17;;;;;;;13.40;11.93;;;26.50;74.90;;;;;;5006269;28;20280;-52
2023/03/16 05:57:44;;;;;;;15.60;12.13;;;26.50;74.80;;;;;;5006256;28;20022;-54
2023/03/16 06:00:14;;;;;;;15.70;11.63;;;26.50;74.80;;;;;;5006343;28;20049;-50
2023/03/16 06:02:52;;;;;;;13.65;12.07;;;26.50;74.60;;;;;;5007688;28;20243;-54
2023/03/16 06:05:24;;;;;;;13.45;11.80;;;26.50;74.70;;;;;;5006363;28;20041;-51
2023/03/16 06:07:52;;;;;;;15.53;13.27;;;26.50;74.70;;;;;;5006346;28;20322;-52
2023/03/16 06:10:19;;;;;;;16.08;13.15;;;26.50;74.70;;;;;;5006189;28;20089;-52
2023/03/16 06:12:45;;;;;;;17.42;13.02;;;26.50;74.90;;;;;;5006467;28;20014;-52
2023/03/16 06:15:12;;;;;;;16.05;13.00;;;26.50;74.90;;;;;;5006025;28;20208;-51
2023/03/16 06:17:40;;;;;;;16.30;13.10;;;26.40;74.90;;;;;;5006132;28;20097;-51
2023/03/16 06:20:10;;;;;;;14.27;12.77;;;26.40;74.70;;;;;;5006058;28;20038;-52
2023/03/16 06:22:38;;;;;;;15.63;12.43;;;26.50;74.70;;;;;;5005946;28;20034;-50
2023/03/16 06:25:05;;;;;;;13.70;12.30;;;26.40;74.80;;;;;;5006049;28;20061;-52
2023/03/16 06:27:32;;;;;;;14.10;12.50;;;26.40;74.70;;;;;;5006082;28;20038;-51
2023/03/16 06:29:58;;;;;;;14.23;11.18;;;26.40;74.70;;;;;;5005733;28;20041;-57
2023/03/16 06:32:25;;;;;;;13.82;11.73;;;26.40;74.50;;;;;;5005991;28;20022;-53
2023/03/16 06:34:51;;;;;;;15.52;12.25;;;26.40;74.50;;;;;;5005940;28;20345;-50
2023/03/16 06:37:18;;;;;;;16.40;11.93;;;26.40;74.50;;;;;;4988272;28;20297;-46
2023/03/16 06:39:44;;;;;;;13.57;11.57;;;26.40;74.50;;;;;;5005557;28;20112;-50
2023/03/16 06:42:11;;;;;;;14.77;12.00;;;26.40;74.40;;;;;;5005750;28;20046;-51
2023/03/16 06:44:38;;;;;;;12.68;11.40;;;26.40;74.20;;;;;;5005556;28;20037;-50
2023/03/16 06:47:04;;;;;;;14.15;11.38;;;26.40;74.40;;;;;;4988126;28;20072;-50
2023/03/16 06:49:31;;;;;;;13.95;11.40;;;26.30;74.30;;;;;;5005421;28;20080;-49
2023/03/16 06:51:58;;;;;;;13.00;11.48;;;26.40;74.20;;;;;;5005405;28;20230;-49
2023/03/16 06:54:24;;;;;;;12.40;11.18;;;26.30;74.20;;;;;;5005576;28;20326;-53
2023/03/16 06:56:51;;;;;;;13.25;11.63;;;26.30;74.20;;;;;;5005542;28;20032;-51
2023/03/16 06:59:17;;;;;;;13.98;12.55;;;26.30;74.40;;;;;;5004238;28;20030;-52
2023/03/16 07:01:44;;;;;;;13.90;12.27;;;26.30;74.50;;;;;;5005319;28;20030;-49
2023/03/16 07:04:11;;;;;;;14.38;12.07;;;26.30;74.60;;;;;;5010503;28;20034;-55
2023/03/16 07:06:38;;;;;;;13.95;11.85;;;26.30;74.70;;;;;;5022290;28;20041;-54
2023/03/16 07:09:04;;;;;;;19.80;12.27;;;26.30;74.70;;;;;;5024581;28;20404;-52
2023/03/16 07:11:31;;;;;;;14.38;11.98;;;26.30;74.80;;;;;;5024733;28;20216;-55
2023/03/16 07:13:58;;;;;;;14.20;12.25;;;26.20;75.20;;;;;;5024684;28;20030;-57
2023/03/16 07:16:25;;;;;;;13.70;11.98;;;26.30;74.70;;;;;;5024536;28;20092;-57
2023/03/16 07:18:51;;;;;;;15.02;12.75;;;26.20;74.60;;;;;;5024650;28;20034;-51
2023/03/16 07:21:18;;;;;;;15.65;12.70;;;26.20;74.70;;;;;;5024512;28;20056;-51
2023/03/16 07:23:45;;;;;;;13.70;12.30;;;26.20;74.70;;;;;;5024307;28;20226;-49
2023/03/16 07:26:12;;;;;;;17.25;12.07;;;26.20;74.60;;;;;;5024450;28;20029;-52
2023/03/16 07:28:39;;;;;;;17.48;12.23;;;26.20;74.70;;;;;;5024309;28;20105;-53
2023/03/16 07:31:08;;;;;;;14.27;11.95;;;26.20;74.70;;;;;;5024303;28;20319;-52
2023/03/16 07:33:35;;;;;;;16.20;12.27;;;26.20;74.90;;;;;;5024810;28;20041;-49
2023/03/16 07:36:04;;;;;;;15.85;12.13;;;26.20;75.00;;;;;;5024419;28;20025;-49
2023/03/16 07:38:32;;;;;;;14.65;11.65;;;26.10;74.90;;;;;;5024510;28;20022;-55
2023/03/16 07:41:01;;;;;;;13.70;11.63;;;26.10;74.70;;;;;;5024113;28;20329;-48
2023/03/16 07:43:28;;;;;;;15.68;11.80;;;26.10;74.80;;;;;;5024714;28;20030;-49
2023/03/16 07:45:55;;;;;;;17.95;12.13;;;26.10;74.70;;;;;;5024124;28;20061;-52
2023/03/16 07:48:21;;;;;;;14.55;12.30;;;26.10;74.60;;;;;;5024447;28;20026;-50
2023/03/16 07:50:49;;;;;;;14.52;11.75;;;26.10;74.50;;;;;;5024260;28;20029;-50
2023/03/16 07:53:15;;;;;;;17.27;12.10;;;26.10;74.50;;;;;;5024451;28;20030;-48
2023/03/16 07:55:43;;;;;;;14.00;11.75;;;26.10;74.50;;;;;;5024121;28;20049;-49
2023/03/16 07:58:10;;;;;;;14.02;11.77;;;26.10;74.40;;;;;;5024033;28;20044;-53
2023/03/16 08:00:38;;;;;;;13.50;12.05;;;26.10;74.30;;;;;;5023926;28;20026;-50
2023/03/16 08:03:05;;;;;;;15.85;12.40;;;26.10;74.30;;;;;;5024717;28;20045;-50
2023/03/16 08:05:31;;;;;;;16.70;12.02;;;26.10;74.30;;;;;;5024003;28;20045;-49
2023/03/16 08:08:00;;;;;;;13.45;11.85;;;26.00;74.40;;;;;;5024133;28;20041;-55
2023/03/16 08:10:27;;;;;;;15.82;11.75;;;26.00;74.20;;;;;;5024376;28;20044;-51
2023/03/16 08:12:53;;;;;;;13.15;11.35;;;26.00;74.10;;;;;;5028349;28;20022;-50
2023/03/16 08:15:20;;;;;;;13.75;10.75;;;26.00;73.90;;;;;;5027842;28;20022;-51
2023/03/16 08:17:47;;;;;;;11.80;10.70;;;26.00;73.90;;;;;;5028211;28;20089;-49
2023/03/16 08:20:14;;;;;;;12.60;10.63;;;26.00;73.80;;;;;;5028155;28;20033;-53
2023/03/16 08:22:44;;;;;;;14.63;11.20;;;26.00;74.00;;;;;;5028034;28;20076;-51
2023/03/16 08:25:12;;;;;;;15.25;12.10;;;26.00;74.20;;;;;;5027759;28;20037;-53
2023/03/16 08:27:40;;;;;;;15.30;11.32;;;26.00;74.30;;;;;;5028136;28;20076;-51
2023/03/16 08:30:10;;;;;;;12.90;11.38;;;26.00;74.50;;;;;;5027597;28;20372;-52
2023/03/16 08:32:38;;;;;;;14.07;11.07;;;26.00;74.60;;;;;;5027971;28;20344;-53
2023/03/16 08:35:07;;;;;;;14.70;10.88;;;25.90;74.50;;;;;;5027571;28;20124;-52
2023/03/16 08:37:33;;;;;;;14.75;11.30;;;25.90;75.20;;;;;;5027353;28;20309;-50
2023/03/16 08:40:00;;;;;;;15.60;11.73;;;25.90;74.70;;;;;;5027530;28;20041;-61
2023/03/16 08:42:30;;;;;;;14.68;11.95;;;25.90;75.00;;;;;;5027616;28;20120;-51
2023/03/16 08:44:59;;;;;;;22.30;12.00;;;25.90;75.00;;;;;;5027373;28;20026;-50
2023/03/16 08:47:25;;;;;;;13.35;11.95;;;25.90;75.20;;;;;;5027603;28;20306;-49
2023/03/16 08:49:52;;;;;;;17.17;12.50;;;25.90;75.30;;;;;;5027302;28;20191;-45
2023/03/16 08:52:18;;;;;;;17.25;12.48;;;25.90;75.30;;;;;;5027465;28;20021;-57
2023/03/16 08:54:45;;;;;;;17.35;12.13;;;25.90;75.40;;;;;;5027365;28;20022;-49
2023/03/16 08:57:11;;;;;;;15.32;12.20;;;25.80;75.50;;;;;;5027456;28;20021;-55
2023/03/16 08:59:38;;;;;;;15.43;11.88;;;25.80;75.50;;;;;;5027343;28;20042;-54
2023/03/16 09:02:05;;;;;;;14.43;11.98;;;25.80;75.30;;;;;;5027203;28;20144;-51
2023/03/16 09:04:31;;;;;;;14.98;12.25;;;25.80;75.10;;;;;;5027090;28;20101;-49
2023/03/16 09:06:58;;;;;;;12.98;11.23;;;25.80;75.00;;;;;;5026895;28;20045;-52
2023/03/16 09:09:25;;;;;;;17.08;13.02;;;25.80;74.90;;;;;;5027030;28;20021;-54
2023/03/16 09:11:52;;;;;;;17.65;12.00;;;25.80;75.10;;;;;;5026979;28;20097;-57
2023/03/16 09:14:18;;;;;;;15.45;12.20;;;25.80;75.00;;;;;;5026667;28;20025;-54
2023/03/16 09:16:45;;;;;;;14.82;12.48;;;25.70;74.60;;;;;;5026855;28;20030;-50
2023/03/16 09:19:12;;;;;;;16.70;12.38;;;25.80;74.50;;;;;;5026975;28;20022;-54
2023/03/16 09:21:39;;;;;;;15.40;12.18;;;25.80;74.60;;;;;;5026415;28;20246;-53
2023/03/16 09:24:07;;;;;;;15.55;12.65;;;25.80;74.50;;;;;;5026128;28;20025;-53
2023/03/16 09:26:35;;;;;;;15.45;12.98;;;25.80;74.60;;;;;;5026623;28;20033;-53
2023/03/16 09:29:05;;;;;;;17.13;13.40;;;25.80;74.30;;;;;;5026337;28;20053;-50
2023/03/16 09:31:33;;;;;;;15.75;12.65;;;25.80;74.40;;;;;;5026549;28;20061;-51
2023/03/16 09:34:00;;;;;;;17.23;13.07;;;25.80;74.30;;;;;;5026687;28;20057;-55
2023/03/16 09:36:27;;;;;;;16.95;12.55;;;25.80;74.30;;;;;;5026308;28;20021;-49
2023/03/16 09:38:54;;;;;;;15.73;12.77;;;25.90;74.10;;;;;;5026381;28;20052;-50
2023/03/16 09:41:44;;;;;;;16.05;12.38;;;25.80;74.00;;;;;;5026136;28;20050;-49
2023/03/16 09:44:31;;;;;;;13.15;11.85;;;25.80;74.00;;;;;;5026382;28;20045;-50
2023/03/16 09:47:01;;;;;;;13.15;11.52;;;25.80;73.80;;;;;;5026154;28;20040;-49
2023/03/16 09:49:42;;;;;;;12.35;10.75;;;25.80;73.80;;;;;;5026222;28;20029;-51
2023/03/16 09:52:21;;;;;;;17.77;11.25;;;25.80;73.70;;;;;;5026411;28;20044;-51
2023/03/16 09:55:26;;;;;;;14.93;11.40;;;25.80;73.60;;;;;;5026362;28;20206;-51
2023/03/16 09:57:56;;;;;;;16.85;10.98;;;25.80;73.50;;;;;;5003612;28;20088;-50
2023/03/16 10:00:26;;;;;;;11.93;10.75;;;25.80;73.50;;;;;;5019203;28;20036;-50
2023/03/16 10:03:17;;;;;;;11.38;10.07;;;25.80;73.60;;;;;;5012950;28;20377;-51
2023/03/16 10:05:47;;;;;;;13.23;10.73;;;25.70;73.40;;;;;;5006222;28;20369;-51
2023/03/16 10:08:21;;;;;;;13.18;10.77;;;25.70;73.30;;;;;;5006534;28;20097;-51
2023/03/16 10:11:08;;;;;;;12.02;10.55;;;25.70;73.40;;;;;;5006152;28;20053;-48
2023/03/16 10:13:47;;;;;;;12.27;10.98;;;25.70;73.50;;;;;;5025615;28;20092;-50
2023/03/16 10:16:37;;;;;;;13.88;10.85;;;25.70;73.50;;;;;;5045300;28;20345;-51
2023/03/16 10:19:28;;;;;;;13.93;10.50;;;25.70;73.30;;;;;;5045394;28;20033;-50
2023/03/16 10:21:57;;;;;;;12.85;10.35;;;25.70;73.20;;;;;;5045817;28;20029;-49
2023/03/16 10:24:24;;;;;;;13.18;10.23;;;25.70;73.20;;;;;;5045391;28;20148;-50
2023/03/16 10:26:59;;;;;;;14.55;10.57;;;25.70;73.20;;;;;;5036267;28;20030;-49
2023/03/16 10:29:31;;;;;;;14.15;10.45;;;25.70;73.20;;;;;;5014544;28;20038;-50
2023/03/16 10:32:07;;;;;;;15.10;10.40;;;25.70;73.10;;;;;;4990979;28;20258;-52
2023/03/16 10:34:37;;;;;;;12.85;10.18;;;25.70;73.00;;;;;;5014574;28;20322;-49
2023/03/16 10:37:04;;;;;;;12.65;10.40;;;25.70;73.10;;;;;;4999216;28;20021;-50
2023/03/16 10:39:41;;;;;;;13.43;9.95;;;25.70;73.00;;;;;;5024948;28;20018;-54
2023/03/16 10:42:16;;;;;;;16.70;11.00;;;25.70;73.10;;;;;;5025216;28;20053;-52
2023/03/16 10:44:46;;;;;;;12.57;10.77;;;25.70;73.10;;;;;;5024989;28;20014;-50
2023/03/16 10:47:23;;;;;;;15.18;10.73;;;25.70;73.00;;;;;;5018543;28;20034;-50
2023/03/16 10:49:50;;;;;;;16.23;10.80;;;25.70;72.90;;;;;;5005786;28;20010;-55
2023/03/16 10:52:31;;;;;;;12.40;10.60;;;25.70;72.90;;;;;;5005522;28;20218;-51
2023/03/16 10:55:14;;;;;;;12.60;11.30;;;25.70;72.90;;;;;;5005593;28;20042;-53
2023/03/16 10:57:50;;;;;;;15.13;11.05;;;25.70;72.90;;;;;;5005463;28;20034;-53
2023/03/16 11:00:21;;;;;;;15.90;11.00;;;25.70;72.80;;;;;;5005511;28;20306;-53
2023/03/16 11:02:50;;;;;;;14.73;11.73;;;25.70;72.80;;;;;;5038004;28;20033;-51
2023/03/16 11:05:17;;;;;;;13.10;10.88;;;25.70;73.20;;;;;;5015909;28;20030;-51
2023/03/16 11:08:02;;;;;;;15.80;11.27;;;25.70;73.00;;;;;;5005536;28;20034;-51
2023/03/16 11:10:31;;;;;;;15.20;11.48;;;25.70;73.00;;;;;;5009980;28;20055;-51
2023/03/16 11:13:21;;;;;;;18.20;12.15;;;25.70;73.10;;;;;;5021884;28;20318;-50
2023/03/16 11:16:13;;;;;;;21.98;12.65;;;25.70;73.00;;;;;;5013355;28;20022;-51
2023/03/16 11:18:47;;;;;;;23.25;13.48;;;25.70;73.10;;;;;;5016345;28;20045;-51
2023/03/16 11:21:37;;;;;;;22.23;12.50;;;25.70;73.40;;;;;;5017027;28;20022;-55
2023/03/16 11:24:10;;;;;;;22.08;15.75;;;25.80;73.70;;;;;;5021865;28;20084;-50
2023/03/16 11:26:41;;;;;;;22.83;13.32;;;25.80;73.90;;;;;;5022474;28;20257;-51
2023/03/16 11:29:23;;;;;;;21.55;12.88;;;25.90;73.80;;;;;;5021236;28;20025;-49
2023/03/16 11:32:00;;;;;;;34.13;12.75;;;25.90;73.60;;;;;;5029119;28;20179;-49
2023/03/16 11:34:29;;;;;;;37.95;13.75;;;25.90;73.70;;;;;;5040043;28;20067;-49
2023/03/16 11:36:59;;;;;;;46.05;13.60;;;25.90;73.70;;;;;;5044125;28;20025;-47
2023/03/16 11:39:51;;;;;;;36.38;13.35;;;25.90;74.10;;;;;;5044150;28;20025;-42
2023/03/16 11:43:03;;;;;;;31.97;12.87;;;25.80;74.10;;;;;;5043972;28;20069;-47
2023/03/16 11:45:48;;;;;;;18.92;12.48;;;25.80;74.10;;;;;;4963564;28;20312;-50
2023/03/16 11:48:20;;;;;;;21.67;13.18;;;25.80;74.20;;;;;;5042845;28;20063;-51
2023/03/16 11:51:11;;;;;;;25.50;12.48;;;25.80;74.30;;;;;;5027245;28;20030;-49
2023/03/16 11:54:06;;;;;;;28.83;14.93;;;25.90;74.50;;;;;;5044153;28;20031;-47
2023/03/16 11:56:39;;;;;;;28.52;16.17;;;25.90;74.90;;;;;;4973311;28;20239;-44
2023/03/16 11:59:21;;;;;;;24.73;15.82;;;25.90;75.00;;;;;;5044424;28;20064;-53
2023/03/16 12:02:52;;;;;;;22.23;15.30;;;25.90;74.90;;;;;;5044625;28;20041;-45
2023/03/16 12:05:35;;;;;;;24.55;15.77;;;26.00;75.10;;;;;;4945230;29;20051;-48
2023/03/16 12:08:15;;;;;;;23.38;16.10;;;26.00;75.40;;;;;;4944880;29;20056;-45
2023/03/16 12:11:08;;;;;;;25.65;16.05;;;26.00;75.70;;;;;;5013271;28;20037;-47
2023/03/16 12:14:06;;;;;;;23.33;15.15;;;26.00;75.80;;;;;;5044391;28;20294;-45
2023/03/16 12:16:56;;;;;;;19.45;14.48;;;26.10;76.40;;;;;;5043948;28;20040;-44
2023/03/16 12:19:46;;;;;;;19.15;13.80;;;26.00;76.50;;;;;;5032074;28;20037;-51
2023/03/16 12:22:43;;;;;;;17.30;13.60;;;26.10;76.60;;;;;;5044217;28;20329;-46
2023/03/16 12:25:22;;;;;;;19.27;13.75;;;26.10;76.50;;;;;;5043669;28;20037;-46
2023/03/16 12:27:53;;;;;;;16.80;12.70;;;26.10;76.50;;;;;;5043465;28;20021;-48
2023/03/16 12:30:44;;;;;;;17.50;13.43;;;26.10;76.70;;;;;;5044199;28;20100;-47
2023/03/16 12:33:28;;;;;;;19.67;13.45;;;26.10;76.80;;;;;;5043757;28;20017;-47
2023/03/16 12:36:08;;;;;;;17.00;12.80;;;26.10;76.90;;;;;;5044159;28;20041;-50
2023/03/16 12:38:47;;;;;;;19.90;12.90;;;26.10;76.70;;;;;;5043327;28;20017;-47
2023/03/16 12:41:26;;;;;;;17.08;12.48;;;26.10;76.90;;;;;;5022578;28;20088;-46
2023/03/16 12:44:20;;;;;;;19.60;12.80;;;26.20;77.10;;;;;;5024218;28;20092;-47
2023/03/16 12:46:55;;;;;;;18.83;12.73;;;26.20;77.10;;;;;;5023676;28;20041;-44